Tiempo atmosférico en la estación meteorológica de San Bartolome Tirajana, Las Tirajanas, Las Palmas (960 m.)



Fecha
DESCASC
Temp. máxima en grados centígrados (hora)
DESCASC
Temp. mínima en grados centígrados (hora)
DESCASC
Temp. media en grados centígrados
DESCASC
Racha de viento máxima en m/sg (hora)
DESCASC
Velocidad máxima media en intervalos de 10 minutos(hora)
DESCASC
Precipitaciones diarias en mm
DESCASC
Precipitaciones de 00:00 a 06:00 en mm
DESCASC
Precipitaciones de 06:00 a 12:00 en mm
DESCASC
Precipitaciones de 12:00 a 18:00 en mm
DESCASC
Precipitaciones de 18:00 a 24:00 en mm
DESCASC
10-07-2020 34.1 (14:40) 24.7 (22:10) 29.4 14.17 (01:20) 6.94 (01:20) 0 0 0 0 0
09-07-2020 36.6 (13:50) 28.3 (23:20) 32.4 15.83 (10:50) 9.44 (10:50) 0 0 0 0 0
08-07-2020 40.2 (15:30) 30.1 (04:20) 35.2 13.89 (22:30) 9.17 (07:10) 0 0 0 0 0
07-07-2020 40.5 (12:50) 29.6 (07:20) 35.1 7.5 (23:00) 3.06 (00:30) 0 0 0 0 0
06-07-2020 40.3 (15:10) 28 (00:00) 34.1 5.28 (15:00) 2.78 (06:00) 0 0 0 0 0
05-07-2020 36.2 (15:30) 24.7 (00:00) 30.5 7.5 (14:30) 3.61 (14:20) 0 0 0 0 0
04-07-2020 32.9 (12:00) 25.9 (00:00) 29.4 5.56 (15:30) 2.78 (14:40) 0 0 0 0 0
03-07-2020 36.8 (12:30) 27.1 (06:00) 31.9 5.83 (15:50) 2.5 (15:40) 0 0 0 0 0
02-07-2020 37.3 (13:30) 24.9 (00:00) 31.1 6.39 (13:40) 3.33 (13:40) 0 0 0 0 0
01-07-2020 37.4 (15:30) 22.4 (00:00) 29.9 6.94 (16:30) 3.89 (03:50) 0 0 0 0 0
30-06-2020 30.7 (16:30) 17.1 (00:00) 23.9 5.83 (15:00) 3.06 (21:10) 0 0 0 0 0
29-06-2020 29.5 (16:50) 18.5 (00:00) 24 6.39 (13:50) 2.5 (11:30) 0 0 0 0 0
28-06-2020 30.7 (16:40) 19.9 (00:00) 25.3 6.11 (13:00) 2.5 (12:20) 0 0 0 0 0
27-06-2020 29.9 (15:40) 19.3 (00:00) 24.6 7.22 (14:40) 2.5 (12:30) 0 0 0 0 0
26-06-2020 28 (14:40) 17.3 (00:00) 22.6 5.83 (13:30) 2.5 (11:30) 0 0 0 0 0
25-06-2020 28.8 (15:30) 14.6 (00:00) 21.7 5.83 (16:10) 2.78 (15:40) 0 0 0 0 0
24-06-2020 28.3 (12:50) 16.6 (00:00) 22.4 6.11 (13:30) 2.22 (12:10) 0 0 0 0 0
23-06-2020 31.1 (15:10) 18.4 (00:00) 24.8 5.83 (15:40) 2.5 (11:50) 0 0 0 0 0
22-06-2020 30.9 (14:20) 20 (00:00) 25.4 6.39 (12:30) 2.78 (13:40) 0 0 0 0 0
21-06-2020 30.6 (15:00) 17.2 (00:00) 23.9 6.11 (15:00) 2.5 (12:30) 0 0 0 0 0
20-06-2020 27.4 (14:00) 15.1 (00:00) 21.3 5.83 (13:00) 2.22 (11:50) 0 0 0 0 0
19-06-2020 27.2 (16:40) 13.4 (00:00) 20.3 9.17 (15:30) 3.89 (15:20) 0 0 0 0 0
18-06-2020 25 (12:30) 14.5 (00:00) 19.8 6.39 (14:20) 2.78 (11:10) 0 0 0 0 0
17-06-2020 26 (10:20) 16.6 (00:00) 21.3 24.17 (03:20) 11.94 (03:30) 0.2 0 0 0 0.2
16-06-2020 29.1 (13:30) 18.3 (00:00) 23.7 24.17 (23:00) 14.44 (20:00) 0 0 0 0 0
15-06-2020 -- (--) -- (--) -- -- (--) -- (--) -- -- 0.2 0 0
14-06-2020 -- (--) -- (--) -- -- (--) -- (--) -- -- -- -- --
13-06-2020 -- (--) -- (--) -- -- (--) -- (--) -- -- -- -- --
12-06-2020 -- (--) -- (--) -- -- (--) -- (--) -- -- -- 0 --

Gráficas

Temp. máximas Temp. mínimas Temp. medias Precipitaciones Rachas de viento máximas Velocidades máximas media en intervalos de 10 minutos

Datos horarios

Fecha y hora oficial Temperatura (ºC) Velocidad del viento (km/h) Dirección del viento Racha (km/h) Dirección de racha Precipitación (mm) Presión (hPa) Tendencia (hPa) Humedad (%)
2020-07-11 23:00:00 23.1 6 Sudoeste 11 Sudoeste 0 -- -- 30
2020-07-11 22:00:00 24.2 4 Sur 13 Sur 0 -- -- 35
2020-07-11 21:00:00 24.9 4 Sur 8 Sudoeste 0 -- -- 42
2020-07-11 20:00:00 25.9 4 Sudeste 13 Este 0 -- -- 44
2020-07-11 19:00:00 27.7 6 Este 16 Este 0 -- -- 39
2020-07-11 18:00:00 31.6 4 Este 24 Sur 0 -- -- 30
2020-07-11 17:00:00 32.8 6 Sudeste 27 Sur 0 -- -- 25
2020-07-11 16:00:00 33.5 9 Sudeste 34 Nordeste 0 -- -- 22
2020-07-11 15:00:00 33.9 13 Nordeste 40 Nordeste 0 -- -- 14
2020-07-11 14:00:00 32.6 17 Nordeste 37 Nordeste 0 -- -- 16
2020-07-11 13:00:00 32.2 18 Nordeste 38 Este 0 -- -- 17
2020-07-11 12:00:00 32.3 15 Este 32 Este 0 -- -- 18
2020-07-11 11:00:00 31.6 13 Este 27 Nordeste 0 -- -- 19
2020-07-11 10:00:00 30.9 6 Este 22 Sudeste 0 -- -- 25
2020-07-11 09:00:00 28.9 5 Este 14 Nordeste 0 -- -- 19
2020-07-11 08:00:00 25.7 6 Noroeste 28 Nordeste 0 -- -- 21
2020-07-11 07:00:00 26 12 Nordeste 33 Nordeste 0 -- -- 18
2020-07-11 06:00:00 25.9 14 Norte 33 Norte 0 -- -- 18
2020-07-11 05:00:00 25.8 7 Norte 35 Este 0 -- -- 20
2020-07-11 04:00:00 26.2 9 Nordeste 36 Norte 0 -- -- 21
2020-07-11 03:00:00 25.6 8 Sudeste 23 Sudeste 0 -- -- 24
2020-07-11 02:00:00 26.1 9 Norte 32 Noroeste 0 -- -- 20
2020-07-11 01:00:00 26.3 9 Noroeste 32 Norte 0 -- -- 19
2020-07-11 00:00:00 26.1 10 Norte 30 Nordeste 0 -- -- 17
2020-07-10 23:00:00 25.5 8 Sudeste 21 Nordeste 0 -- -- 23
2020-07-10 22:00:00 24.9 6 Nordeste 22 Noroeste 0 -- -- 29
2020-07-10 21:00:00 26.3 5 Sudoeste 12 Sudoeste 0 -- -- 25
2020-07-10 20:00:00 28.4 5 Sudoeste 15 Sudeste 0 -- -- 24
2020-07-10 19:00:00 29.9 5 Sudeste 15 Sudeste 0 -- -- 22
2020-07-10 18:00:00 31.1 4 Este 18 Este 0 -- -- 26
2020-07-10 17:00:00 31.5 12 Sudeste 39 Nordeste 0 -- -- 24
2020-07-10 16:00:00 32.8 9 Nordeste 37 Nordeste 0 -- -- 12
2020-07-10 15:00:00 33.8 9 Este 21 Este 0 -- -- 13
2020-07-10 14:00:00 33.4 8 Este 26 Sudeste 0 -- -- 19
2020-07-10 13:00:00 33.1 8 Este 27 Sudeste 0 -- -- 20
2020-07-10 12:00:00 31.9 11 Nordeste 29 Noroeste 0 -- -- 13
2020-07-10 11:00:00 30.6 5 Sudoeste 18 Sur 0 -- -- 14
2020-07-10 10:00:00 29.1 5 Sur 17 Sudeste 0 -- -- 22
2020-07-10 09:00:00 28.6 5 Nordeste 17 Sudeste 0 -- -- 25
2020-07-10 08:00:00 25.7 3 Sudeste 20 Sur 0 -- -- 22
2020-07-10 07:00:00 25.9 10 Este 28 Norte 0 -- -- 21
2020-07-10 06:00:00 25.5 7 Sudeste 26 Oeste 0 -- -- 22
2020-07-10 05:00:00 26.1 6 Sur 32 Nordeste 0 -- -- 20
2020-07-10 04:00:00 26.5 18 Nordeste 45 Nordeste 0 -- -- 17
2020-07-10 03:00:00 26.9 17 Nordeste 45 Norte 0 -- -- 13
2020-07-10 02:00:00 27 19 Norte 51 Norte 0 -- -- 14
2020-07-10 01:00:00 27.6 18 Norte 45 Noroeste 0 -- -- 20
2020-07-10 00:00:00 28.5 17 Norte 48 Nordeste 0 -- -- 19
2020-07-09 23:00:00 28.6 26 Norte 53 Norte 0 -- -- 14
2020-07-09 22:00:00 28.8 28 Norte 45 Nordeste 0 -- -- 11
2020-07-09 21:00:00 30.2 15 Nordeste 37 Norte 0 -- -- 7
2020-07-09 20:00:00 31.6 18 Norte 42 Norte 0 -- -- 7
2020-07-09 19:00:00 30.3 5 Sudeste 17 Sudeste 0 -- -- 36
2020-07-09 18:00:00 32.7 6 Este 35 Nordeste 0 -- -- 31
2020-07-09 17:00:00 35 16 Nordeste 30 Norte 0 -- -- 15
2020-07-09 16:00:00 34.5 7 Este 22 Norte 0 -- -- 23
2020-07-09 15:00:00 35.8 10 Este 28 Este 0 -- -- 27
2020-07-09 14:00:00 36.6 10 Este 32 Nordeste 0 -- -- 20
2020-07-09 13:00:00 36.3 7 Este 21 Sudeste 0 -- -- 19
2020-07-09 12:00:00 35.6 9 Este 44 Nordeste 0 -- -- 16
2020-07-09 11:00:00 34.7 27 Nordeste 57 Nordeste 0 -- -- 11
2020-07-09 10:00:00 33.6 30 Nordeste 56 Nordeste 0 -- -- 11
2020-07-09 09:00:00 32.7 26 Nordeste 50 Nordeste 0 -- -- 11
2020-07-09 08:00:00 31.3 26 Nordeste 49 Nordeste 0 -- -- 12
2020-07-09 07:00:00 31 24 Nordeste 54 Nordeste 0 -- -- 12
2020-07-09 06:00:00 30.8 26 Nordeste 48 Nordeste 0 -- -- 11
2020-07-09 05:00:00 30.9 22 Norte 45 Norte 0 -- -- 11
2020-07-09 04:00:00 31.1 22 Norte 39 Norte 0 -- -- 12
2020-07-09 03:00:00 31.3 12 Nordeste 36 Nordeste 0 -- -- 13
2020-07-09 02:00:00 31.6 12 Sudeste 50 Nordeste 0 -- -- 13
2020-07-09 01:00:00 31.7 21 Nordeste 52 Nordeste 0 -- -- 13
2020-07-09 00:00:00 31.9 11 Nordeste 38 Nordeste 0 -- -- 14
2020-07-08 23:00:00 32.2 17 Nordeste 50 Nordeste 0 -- -- 14
2020-07-08 22:00:00 32.3 24 Nordeste 44 Nordeste 0 -- -- 14
2020-07-08 21:00:00 32.8 5 Sudoeste 16 Sudeste 0 -- -- 12
2020-07-08 20:00:00 33.8 6 Este 14 Este 0 -- -- 16
2020-07-08 19:00:00 35.3 6 Este 12 Este 0 -- -- 18
2020-07-08 18:00:00 35.7 6 Este 16 Este 0 -- -- 24
2020-07-08 17:00:00 37.7 6 Este 18 Este 0 -- -- 22
2020-07-08 16:00:00 37.9 6 Sudeste 29 Este 0 -- -- 20
2020-07-08 15:00:00 39.3 17 Este 37 Nordeste 0 -- -- 12
2020-07-08 14:00:00 38.8 19 Nordeste 42 Nordeste 0 -- -- 11
2020-07-08 13:00:00 38.8 25 Nordeste 39 Nordeste 0 -- -- 11
2020-07-08 12:00:00 39.1 5 Nordeste 25 Nordeste 0 -- -- 14
2020-07-08 11:00:00 37.8 13 Nordeste 40 Nordeste 0 -- -- 16
2020-07-08 10:00:00 37.2 19 Nordeste 42 Nordeste 0 -- -- 12
2020-07-08 09:00:00 35.2 24 Nordeste 46 Nordeste 0 -- -- 13
2020-07-08 08:00:00 33.9 24 Nordeste 49 Nordeste 0 -- -- 14
2020-07-08 07:00:00 33.1 29 Nordeste 48 Nordeste 0 -- -- 14
2020-07-08 06:00:00 31.6 7 Norte 39 Norte 0 -- -- 15
2020-07-08 05:00:00 31.3 6 Nordeste 21 Norte 0 -- -- 16
2020-07-08 04:00:00 30.6 4 Sudeste 10 Oeste 0 -- -- 20
2020-07-08 03:00:00 31.9 5 Sudeste 17 Este 0 -- -- 20
2020-07-08 02:00:00 33.1 7 Sudeste 29 Sudoeste 0 -- -- 17
2020-07-08 01:00:00 33.1 6 Sur 22 Sudeste 0 -- -- 16
2020-07-08 00:00:00 33.2 7 Este 24 Nordeste 0 -- -- 17
2020-07-07 23:00:00 33.1 9 Este 27 Nordeste 0 -- -- 20
2020-07-07 22:00:00 32.5 6 Sudoeste 10 Sur 0 -- -- 27
2020-07-07 21:00:00 32.6 3 Sudoeste 10 Sudeste 0 -- -- 34
2020-07-07 20:00:00 33.7 2 Este 9 Este 0 -- -- 35
2020-07-07 19:00:00 35 3 Este 9 Este 0 -- -- 35
2020-07-07 18:00:00 36.4 5 Este 13 Este 0 -- -- 35
2020-07-07 17:00:00 38.1 8 Este 17 Sudeste 0 -- -- 26
2020-07-07 16:00:00 39.3 7 Este 17 Este 0 -- -- 24
2020-07-07 15:00:00 39.1 7 Este 19 Este 0 -- -- 24
2020-07-07 14:00:00 39.6 6 Este 17 Este 0 -- -- 20
2020-07-07 13:00:00 40.1 9 Este 18 Este 0 -- -- 15
2020-07-07 12:00:00 38.5 9 Este 19 Este 0 -- -- 16
2020-07-07 11:00:00 37.1 5 Este 10 Este 0 -- -- 15
2020-07-07 10:00:00 34 4 Este 9 Noroeste 0 -- -- 18
2020-07-07 09:00:00 31 4 Este 10 Sudeste 0 -- -- 20
2020-07-07 08:00:00 30.7 3 Sudoeste 8 Noroeste 0 -- -- 19
2020-07-07 07:00:00 29.9 5 Noroeste 8 Noroeste 0 -- -- 19
2020-07-07 06:00:00 30.4 3 Oeste 8 Sudoeste 0 -- -- 18
2020-07-07 05:00:00 30.9 3 Oeste 9 Sudoeste 0 -- -- 18
2020-07-07 04:00:00 32.6 7 Sudeste 18 Noroeste 0 -- -- 18
2020-07-07 03:00:00 32.1 7 Oeste 12 Noroeste 0 -- -- 17
2020-07-07 02:00:00 32 2 Sudoeste 8 Noroeste 0 -- -- 18
2020-07-07 01:00:00 32.5 3 Sudeste 16 Noroeste 0 -- -- 18
2020-07-07 00:00:00 31.9 7 Oeste 15 Noroeste 0 -- -- 18
2020-07-06 23:00:00 31.7 8 Noroeste 10 Noroeste 0 -- -- 23
2020-07-06 22:00:00 32.2 2 Oeste 6 Oeste 0 -- -- 31
2020-07-06 21:00:00 33.6 2 Sudoeste 4 Sudoeste 0 -- -- 30
2020-07-06 20:00:00 34.3 2 Sudeste 5 Sudeste 0 -- -- 34
2020-07-06 19:00:00 34.7 4 Este 10 Nordeste 0 -- -- 34
2020-07-06 18:00:00 35.7 4 Este 13 Este 0 -- -- 32
2020-07-06 17:00:00 36.8 6 Este 13 Este 0 -- -- 31
2020-07-06 16:00:00 39 6 Este 17 Este 0 -- -- 27
2020-07-06 15:00:00 40 7 Este 19 Este 0 -- -- 23
2020-07-06 14:00:00 38.5 7 Este 15 Este 0 -- -- 24
2020-07-06 13:00:00 36.1 4 Nordeste 15 Este 0 -- -- 26
2020-07-06 12:00:00 39.5 5 Noroeste 13 Sudeste 0 -- -- 17
2020-07-06 11:00:00 37.4 5 Nordeste 15 Nordeste 0 -- -- 15
2020-07-06 10:00:00 35.2 4 Sudeste 15 Sudoeste 0 -- -- 16
2020-07-06 09:00:00 30.8 7 Oeste 14 Sudeste 0 -- -- 18
2020-07-06 08:00:00 29.1 8 Sudoeste 14 Sudoeste 0 -- -- 18
2020-07-06 07:00:00 28.9 6 Sudoeste 15 Sudoeste 0 -- -- 18
2020-07-06 06:00:00 28.3 10 Oeste 15 Noroeste 0 -- -- 17
2020-07-06 05:00:00 29 6 Sudoeste 19 Sudeste 0 -- -- 14
2020-07-06 04:00:00 29.7 8 Este 17 Este 0 -- -- 16
2020-07-06 03:00:00 30 5 Sudeste 15 Sudeste 0 -- -- 17
2020-07-06 02:00:00 29.2 4 Sudeste 13 Oeste 0 -- -- 21
2020-07-06 01:00:00 28.5 8 Noroeste 14 Sur 0 -- -- 23
2020-07-06 00:00:00 30.7 2 Sur 6 Sudoeste 0 -- -- 18
2020-07-05 23:00:00 31.2 5 Sudoeste 10 Sudoeste 0 -- -- 19
2020-07-05 22:00:00 31.6 7 Sudoeste 10 Sudoeste 0 -- -- 19
2020-07-05 21:00:00 33.3 3 Sudoeste 6 Este 0 -- -- 16
2020-07-05 20:00:00 34.7 3 Sur 8 Sudeste 0 -- -- 17
2020-07-05 19:00:00 33.7 2 Este 9 Nordeste 0 -- -- 27
2020-07-05 18:00:00 34.8 6 Oeste 19 Este 0 -- -- 26
2020-07-05 17:00:00 36.1 7 Este 16 Este 0 -- -- 23
2020-07-05 16:00:00 35.8 6 Este 17 Este 0 -- -- 22
2020-07-05 15:00:00 34 5 Este 27 Nordeste 0 -- -- 26
2020-07-05 14:00:00 33.7 10 Nordeste 23 Este 0 -- -- 24
2020-07-05 13:00:00 35.7 7 Este 17 Este 0 -- -- 16
2020-07-05 12:00:00 30.7 4 Este 13 Este 0 -- -- 21
2020-07-05 11:00:00 29.8 2 Norte 14 Este 0 -- -- 27
2020-07-05 10:00:00 29.7 3 Este 7 Este 0 -- -- 26
2020-07-05 09:00:00 29 2 Noroeste 9 Noroeste 0 -- -- 20
2020-07-05 08:00:00 24.7 5 Oeste 9 Sudeste 0 -- -- 27
2020-07-05 07:00:00 26.8 3 Nordeste 8 Sudeste 0 -- -- 23
2020-07-05 06:00:00 26.6 3 Noroeste 7 Sudoeste 0 -- -- 25
2020-07-05 05:00:00 27.3 4 Oeste 8 Noroeste 0 -- -- 21
2020-07-05 04:00:00 28.2 2 Sudeste 9 Noroeste 0 -- -- 22
2020-07-05 03:00:00 28.3 0 Calma 8 Sur 0 -- -- 24
2020-07-05 02:00:00 28 5 Oeste 12 Noroeste 0 -- -- 23
2020-07-05 01:00:00 28.6 7 Noroeste 10 Noroeste 0 -- -- 24
2020-07-05 00:00:00 29.4 7 Noroeste 10 Sudeste 0 -- -- 23
2020-07-04 23:00:00 28.7 7 Oeste 9 Oeste 0 -- -- 29
2020-07-04 22:00:00 28.5 3 Sudoeste 9 Oeste 0 -- -- 41
2020-07-04 21:00:00 28.2 2 Sudeste 7 Noroeste 0 -- -- 45
2020-07-04 20:00:00 28.4 3 Noroeste 10 Este 0 -- -- 46
2020-07-04 19:00:00 28.6 5 Oeste 12 Nordeste 0 -- -- 46
2020-07-04 18:00:00 29.6 5 Este 15 Este 0 -- -- 44
2020-07-04 17:00:00 30.7 5 Este 17 Este 0 -- -- 42
2020-07-04 16:00:00 31.9 8 Este 20 Este 0 -- -- 40
2020-07-04 15:00:00 32 8 Este 19 Este 0 -- -- 37
2020-07-04 14:00:00 32.9 6 Este 18 Sudeste 0 -- -- 34
2020-07-04 13:00:00 32.1 8 Este 16 Sudeste 0 -- -- 34
2020-07-04 12:00:00 32.9 8 Este 16 Este 0 -- -- 29
2020-07-04 11:00:00 30 5 Nordeste 12 Este 0 -- -- 29
2020-07-04 10:00:00 29 4 Nordeste 8 Este 0 -- -- 28
2020-07-04 09:00:00 27.7 3 Norte 8 Sudeste 0 -- -- 21
2020-07-04 08:00:00 27.2 4 Oeste 8 Oeste 0 -- -- 17
2020-07-04 07:00:00 26.7 3 Sur 7 Sudeste 0 -- -- 19
2020-07-04 06:00:00 28 3 Noroeste 6 Sudeste 0 -- -- 16
2020-07-04 05:00:00 28.3 5 Sudoeste 9 Noroeste 0 -- -- 15
2020-07-04 04:00:00 27.3 0 Calma 10 Noroeste 0 -- -- 18
2020-07-04 03:00:00 27.4 2 Sudoeste 6 Noroeste 0 -- -- 21
2020-07-04 02:00:00 27.4 5 Noroeste 10 Noroeste 0 -- -- 20
2020-07-04 01:00:00 28.2 4 Noroeste 9 Noroeste 0 -- -- 20
2020-07-04 00:00:00 28.1 3 Oeste 5 Oeste 0 -- -- 22
2020-07-03 23:00:00 28.8 0 Calma 6 Oeste 0 -- -- 26
2020-07-03 22:00:00 29.4 2 Sudoeste 5 Oeste 0 -- -- 27
2020-07-03 21:00:00 30.4 2 Nordeste 5 Noroeste 0 -- -- 29
2020-07-03 20:00:00 30.3 0 Calma 8 Este 0 -- -- 30
2020-07-03 19:00:00 32.4 4 Este 13 Este 0 -- -- 30
2020-07-03 18:00:00 33.3 5 Este 12 Este 0 -- -- 28
2020-07-03 17:00:00 33 6 Este 15 Sudeste 0 -- -- 32
2020-07-03 16:00:00 33.5 7 Este 21 Este 0 -- -- 28
2020-07-03 15:00:00 33.4 7 Este 17 Este 0 -- -- 36
2020-07-03 14:00:00 32.8 7 Este 18 Este 0 -- -- 36
2020-07-03 13:00:00 35.7 8 Este 16 Este 0 -- -- 30
2020-07-03 12:00:00 36.2 7 Este 15 Este 0 -- -- 20
2020-07-03 11:00:00 34.7 4 Este 11 Nordeste 0 -- -- 16
2020-07-03 10:00:00 33.3 3 Este 8 Este 0 -- -- 13
2020-07-03 09:00:00 30.5 3 Este 5 Sur 0 -- -- 14
2020-07-03 08:00:00 28 4 Oeste 6 Noroeste 0 -- -- 17
2020-07-03 07:00:00 27.3 4 Oeste 11 Noroeste 0 -- -- 18
2020-07-03 06:00:00 27.1 9 Noroeste 12 Noroeste 0 -- -- 19
2020-07-03 05:00:00 28 8 Oeste 9 Oeste 0 -- -- 18
2020-07-03 04:00:00 28.9 4 Sur 7 Sudoeste 0 -- -- 19
2020-07-03 03:00:00 29 0 Calma 5 Sudoeste 0 -- -- 19
2020-07-03 02:00:00 29.9 4 Sudoeste 7 Oeste 0 -- -- 19
2020-07-03 01:00:00 29.4 4 Sudoeste 9 Oeste 0 -- -- 23
2020-07-03 00:00:00 29.5 3 Sudoeste 9 Sudeste 0 -- -- 28
2020-07-02 23:00:00 29.2 4 Oeste 7 Oeste 0 -- -- 26
2020-07-02 22:00:00 30.2 5 Sudoeste 6 Oeste 0 -- -- 27
2020-07-02 21:00:00 31.7 3 Sudeste 7 Sudeste 0 -- -- 28
2020-07-02 20:00:00 32.4 4 Sudoeste 7 Sudoeste 0 -- -- 30
2020-07-02 19:00:00 31.1 4 Este 14 Este 0 -- -- 39
2020-07-02 18:00:00 35.4 6 Este 15 Este 0 -- -- 31
2020-07-02 17:00:00 34.3 7 Este 19 Oeste 0 -- -- 31
2020-07-02 16:00:00 31.2 6 Noroeste 20 Norte 0 -- -- 30
2020-07-02 15:00:00 30.9 4 Norte 22 Sudeste 0 -- -- 37
2020-07-02 14:00:00 33.6 7 Nordeste 23 Sur 0 -- -- 28
2020-07-02 13:00:00 35.3 4 Nordeste 13 Sudeste 0 -- -- 16
2020-07-02 12:00:00 31.2 5 Nordeste 11 Este 0 -- -- 33
2020-07-02 11:00:00 30.1 3 Este 16 Este 0 -- -- 34
2020-07-02 10:00:00 29.5 5 Norte 17 Noroeste 0 -- -- 19
2020-07-02 09:00:00 25.5 4 Norte 17 Este 0 -- -- 37
2020-07-02 08:00:00 30.7 5 Oeste 13 Noroeste 0 -- -- 14
2020-07-02 07:00:00 28.1 5 Oeste 9 Noroeste 0 -- -- 19
2020-07-02 06:00:00 28.2 2 Sur 10 Noroeste 0 -- -- 22
2020-07-02 05:00:00 28.4 3 Sudoeste 9 Oeste 0 -- -- 21
2020-07-02 04:00:00 26.3 4 Oeste 7 Oeste 0 -- -- 26
2020-07-02 03:00:00 27.5 4 Oeste 7 Noroeste 0 -- -- 26
2020-07-02 02:00:00 28.6 3 Nordeste 9 Sudeste 0 -- -- 24
2020-07-02 01:00:00 30 4 Sur 8 Noroeste 0 -- -- 22
2020-07-02 00:00:00 28.9 4 Sudoeste 7 Noroeste 0 -- -- 31
2020-07-01 23:00:00 29 3 Este 6 Sudoeste 0 -- -- 33
2020-07-01 22:00:00 28.5 3 Sudoeste 11 Noroeste 0 -- -- 35
2020-07-01 21:00:00 28.2 2 Sudoeste 5 Este 0 -- -- 41
2020-07-01 20:00:00 28.9 4 Sudeste 8 Sudeste 0 -- -- 46
2020-07-01 19:00:00 30.1 3 Este 14 Este 0 -- -- 41
2020-07-01 18:00:00 31.4 4 Este 18 Este 0 -- -- 42
2020-07-01 17:00:00 31.2 5 Este 25 Este 0 -- -- 42
2020-07-01 16:00:00 35 5 Nordeste 18 Sudeste 0 -- -- 22
2020-07-01 15:00:00 36.6 6 Este 16 Nordeste 0 -- -- 16
2020-07-01 14:00:00 32.7 6 Este 15 Nordeste 0 -- -- 31
2020-07-01 13:00:00 32.1 5 Este 15 Este 0 -- -- 36
2020-07-01 12:00:00 32.5 4 Sudeste 15 Sudeste 0 -- -- 24
2020-07-01 11:00:00 32.4 5 Nordeste 13 Este 0 -- -- 16
2020-07-01 10:00:00 30 4 Este 9 Este 0 -- -- 15
2020-07-01 09:00:00 24.6 8 Oeste 16 Oeste 0 -- -- 15
2020-07-01 08:00:00 24.1 3 Sudoeste 12 Oeste 0 -- -- 21
2020-07-01 07:00:00 25 5 Sudeste 10 Oeste 0 -- -- 16
2020-07-01 06:00:00 26 3 Norte 14 Noroeste 0 -- -- 15
2020-07-01 05:00:00 25.3 3 Sudoeste 13 Sudoeste 0 -- -- 13
2020-07-01 04:00:00 25.5 12 Noroeste 19 Noroeste 0 -- -- 11
2020-07-01 03:00:00 24.2 5 Oeste 11 Noroeste 0 -- -- 20
2020-07-01 02:00:00 23.3 5 Oeste 9 Sudeste 0 -- -- 33
2020-07-01 01:00:00 24.6 5 Sudeste 9 Oeste 0 -- -- 41
2020-07-01 00:00:00 22.5 4 Sudoeste 12 Noroeste 0 -- -- 55
2020-06-30 23:00:00 22.5 2 Sur 14 Sur 0 -- -- 60
2020-06-30 22:00:00 22.4 3 Noroeste 19 Oeste 0 -- -- 62
2020-06-30 21:00:00 21.1 9 Oeste 16 Oeste 0 -- -- 67
2020-06-30 20:00:00 24.2 3 Este 11 Este 0 -- -- 56
2020-06-30 19:00:00 26.3 5 Este 14 Este 0 -- -- 51
2020-06-30 18:00:00 27.9 6 Este 15 Sudeste 0 -- -- 48
2020-06-30 17:00:00 29.8 6 Este 18 Este 0 -- -- 44
2020-06-30 16:00:00 30.1 6 Este 19 Este 0 -- -- 43
2020-06-30 15:00:00 30.3 9 Este 21 Este 0 -- -- 42
2020-06-30 14:00:00 30.4 9 Este 18 Este 0 -- -- 42
2020-06-30 13:00:00 30.5 7 Este 18 Nordeste 0 -- -- 39
2020-06-30 12:00:00 29.3 7 Este 17 Sudeste 0 -- -- 40
2020-06-30 11:00:00 26.9 6 Este 13 Este 0 -- -- 43
2020-06-30 10:00:00 25 5 Este 10 Nordeste 0 -- -- 43
2020-06-30 09:00:00 23.3 3 Nordeste 6 Este 0 -- -- 39
2020-06-30 08:00:00 20.5 0 Calma 7 Sudoeste 0 -- -- 44
2020-06-30 07:00:00 20 3 Sudoeste 8 Oeste 0 -- -- 37
2020-06-30 06:00:00 17.8 4 Sudeste 9 Oeste 0 -- -- 55
2020-06-30 05:00:00 19 4 Este 6 Este 0 -- -- 52
2020-06-30 04:00:00 20.4 3 Sur 5 Sur 0 -- -- 54
2020-06-30 03:00:00 20.6 4 Sudoeste 5 Oeste 0 -- -- 51
2020-06-30 02:00:00 20.6 3 Oeste 7 Oeste 0 -- -- 54
2020-06-30 01:00:00 21.3 0 Calma 4 Sudoeste 0 -- -- 55
2020-06-30 00:00:00 21.4 3 Oeste 6 Sudoeste 0 -- -- 58
2020-06-29 23:00:00 20.8 4 Sudoeste 5 Sudoeste 0 -- -- 65
2020-06-29 22:00:00 20 3 Oeste 6 Este 0 -- -- 74
2020-06-29 21:00:00 22 2 Nordeste 7 Este 0 -- -- 64
2020-06-29 20:00:00 24.3 5 Este 10 Este 0 -- -- 57
2020-06-29 19:00:00 26.4 6 Este 16 Este 0 -- -- 51
2020-06-29 18:00:00 28.3 5 Este 15 Este 0 -- -- 47
2020-06-29 17:00:00 29.3 6 Sudeste 17 Este 0 -- -- 45
2020-06-29 16:00:00 29 7 Este 18 Este 0 -- -- 45
2020-06-29 15:00:00 29.2 6 Este 18 Este 0 -- -- 45
2020-06-29 14:00:00 28.5 9 Este 23 Este 0 -- -- 45
2020-06-29 13:00:00 28.2 7 Este 17 Este 0 -- -- 45
2020-06-29 12:00:00 26.5 6 Este 18 Este 0 -- -- 46
2020-06-29 11:00:00 25.3 7 Este 15 Este 0 -- -- 46
2020-06-29 10:00:00 23.7 5 Este 12 Este 0 -- -- 47
2020-06-29 09:00:00 21.7 3 Nordeste 11 Este 0 -- -- 34
2020-06-29 08:00:00 19.4 0 Calma 5 Sudeste 0 -- -- 37
2020-06-29 07:00:00 19.9 2 Este 7 Oeste 0 -- -- 27
2020-06-29 06:00:00 20 3 Noroeste 8 Oeste 0 -- -- 26
2020-06-29 05:00:00 18.5 3 Oeste 6 Nordeste 0 -- -- 34
2020-06-29 04:00:00 20.1 2 Nordeste 7 Noroeste 0 -- -- 37
2020-06-29 03:00:00 20.9 3 Noroeste 6 Oeste 0 -- -- 28
2020-06-29 02:00:00 21.2 3 Oeste 9 Noroeste 0 -- -- 29
2020-06-29 01:00:00 21.4 0 Calma 9 Oeste 0 -- -- 37
2020-06-29 00:00:00 20.9 5 Noroeste 10 Noroeste 0 -- -- 41
2020-06-28 23:00:00 20.3 5 Oeste 7 Oeste 0 -- -- 63
2020-06-28 22:00:00 20.5 2 Noroeste 5 Este 0 -- -- 65
2020-06-28 21:00:00 22.4 2 Nordeste 6 Este 0 -- -- 60
2020-06-28 20:00:00 23.9 3 Este 9 Este 0 -- -- 55
2020-06-28 19:00:00 26.1 4 Este 14 Sudeste 0 -- -- 49
2020-06-28 18:00:00 28.5 4 Sudeste 18 Sudeste 0 -- -- 44
2020-06-28 17:00:00 30.3 6 Sudeste 18 Este 0 -- -- 40
2020-06-28 16:00:00 30.1 7 Este 18 Este 0 -- -- 40
2020-06-28 15:00:00 29.8 5 Sudeste 19 Sudeste 0 -- -- 41
2020-06-28 14:00:00 30.2 4 Este 19 Este 0 -- -- 39
2020-06-28 13:00:00 29.1 9 Este 22 Este 0 -- -- 40
2020-06-28 12:00:00 28.2 8 Este 17 Este 0 -- -- 40
2020-06-28 11:00:00 28.1 7 Este 14 Este 0 -- -- 38
2020-06-28 10:00:00 27 4 Nordeste 9 Este 0 -- -- 28
2020-06-28 09:00:00 23.7 2 Sudeste 6 Nordeste 0 -- -- 32
2020-06-28 08:00:00 20.3 3 Noroeste 6 Noroeste 0 -- -- 33
2020-06-28 07:00:00 20.1 3 Oeste 5 Oeste 0 -- -- 37
2020-06-28 06:00:00 20.2 0 Calma 4 Oeste 0 -- -- 31
2020-06-28 05:00:00 19.9 0 Calma 4 Noroeste 0 -- -- 43
2020-06-28 04:00:00 20.6 0 Calma 6 Sudoeste 0 -- -- 43
2020-06-28 03:00:00 21 4 Oeste 6 Oeste 0 -- -- 44
2020-06-28 02:00:00 20.8 2 Oeste 5 Sudoeste 0 -- -- 55
2020-06-28 01:00:00 21.3 3 Oeste 6 Noroeste 0 -- -- 54
2020-06-28 00:00:00 21.7 3 Oeste 6 Noroeste 0 -- -- 56
2020-06-27 23:00:00 21.7 6 Noroeste 8 Noroeste 0 -- -- 59
2020-06-27 22:00:00 21.9 3 Oeste 5 Oeste 0 -- -- 60
2020-06-27 21:00:00 22.3 4 Oeste 5 Oeste 0 -- -- 61
2020-06-27 20:00:00 23.1 3 Este 11 Este 0 -- -- 59
2020-06-27 19:00:00 25.2 6 Este 15 Este 0 -- -- 53
2020-06-27 18:00:00 27.9 5 Este 14 Sudeste 0 -- -- 46
2020-06-27 17:00:00 29.1 5 Este 17 Este 0 -- -- 44
2020-06-27 16:00:00 29.5 6 Este 20 Sudeste 0 -- -- 43
2020-06-27 15:00:00 29.7 5 Sudeste 26 Este 0 -- -- 42
2020-06-27 14:00:00 29.1 5 Este 19 Este 0 -- -- 44
2020-06-27 13:00:00 27.8 7 Este 18 Este 0 -- -- 46
2020-06-27 12:00:00 26.7 8 Este 17 Este 0 -- -- 48
2020-06-27 11:00:00 24.2 6 Nordeste 13 Sudeste 0 -- -- 51
2020-06-27 10:00:00 24 5 Este 11 Este 0 -- -- 46
2020-06-27 09:00:00 23.2 2 Nordeste 5 Este 0 -- -- 27
2020-06-27 08:00:00 20.3 0 Calma 4 Oeste 0 -- -- 33
2020-06-27 07:00:00 19.8 3 Noroeste 7 Noroeste 0 -- -- 30
2020-06-27 06:00:00 20.2 2 Sudoeste 6 Oeste 0 -- -- 28
2020-06-27 05:00:00 19.3 4 Oeste 6 Oeste 0 -- -- 39
2020-06-27 04:00:00 19.6 4 Noroeste 8 Noroeste 0 -- -- 40
2020-06-27 03:00:00 19.6 4 Oeste 8 Noroeste 0 -- -- 50
2020-06-27 02:00:00 19.4 4 Oeste 7 Noroeste 0 -- -- 53
2020-06-27 01:00:00 19.4 4 Oeste 6 Este 0 -- -- 54
2020-06-27 00:00:00 20.4 0 Calma 6 Noroeste 0 -- -- 52
2020-06-26 23:00:00 19.8 2 Sudoeste 9 Oeste 0 -- -- 56
2020-06-26 22:00:00 18.5 3 Sudoeste 6 Oeste 0 -- -- 71
2020-06-26 21:00:00 19.4 2 Nordeste 8 Sudeste 0 -- -- 68
2020-06-26 20:00:00 21.6 3 Este 9 Sudeste 0 -- -- 61
2020-06-26 19:00:00 23.7 4 Este 17 Nordeste 0 -- -- 55
2020-06-26 18:00:00 26.3 6 Este 17 Sudeste 0 -- -- 47
2020-06-26 17:00:00 27.2 6 Este 17 Sudeste 0 -- -- 45
2020-06-26 16:00:00 27.4 6 Sudeste 20 Este 0 -- -- 46
2020-06-26 15:00:00 27.5 8 Sudeste 20 Sudeste 0 -- -- 47
2020-06-26 14:00:00 27.2 6 Este 21 Sudeste 0 -- -- 47
2020-06-26 13:00:00 27.5 7 Este 18 Este 0 -- -- 46
2020-06-26 12:00:00 26.5 9 Este 17 Este 0 -- -- 42
2020-06-26 11:00:00 25.2 6 Nordeste 16 Este 0 -- -- 43
2020-06-26 10:00:00 23.7 6 Este 10 Nordeste 0 -- -- 41
2020-06-26 09:00:00 22.1 4 Este 8 Este 0 -- -- 35
2020-06-26 08:00:00 18.7 0 Calma 7 Sudoeste 0 -- -- 43
2020-06-26 07:00:00 18 3 Sudoeste 8 Sudoeste 0 -- -- 44
2020-06-26 06:00:00 17.5 0 Calma 6 Noroeste 0 -- -- 52
2020-06-26 05:00:00 18.1 3 Sur 5 Oeste 0 -- -- 54
2020-06-26 04:00:00 17.6 5 Oeste 9 Oeste 0 -- -- 57
2020-06-26 03:00:00 18.5 2 Sudeste 4 Este 0 -- -- 58
2020-06-26 02:00:00 18 2 Noroeste 8 Oeste 0 -- -- 59
2020-06-26 01:00:00 17.8 3 Sudoeste 8 Oeste 0 -- -- 60
2020-06-26 00:00:00 18.5 3 Norte 6 Oeste 0 -- -- 56
2020-06-25 23:00:00 18.7 4 Sudoeste 7 Noroeste 0 -- -- 68
2020-06-25 22:00:00 17.9 4 Noroeste 6 Oeste 0 -- -- 74
2020-06-25 21:00:00 19.5 2 Nordeste 8 Sur 0 -- -- 69
2020-06-25 20:00:00 22 4 Este 11 Este 0 -- -- 61
2020-06-25 19:00:00 24.2 4 Este 12 Este 0 -- -- 50
2020-06-25 18:00:00 26.4 5 Este 18 Este 0 -- -- 46
2020-06-25 17:00:00 27.1 6 Sudeste 21 Sudeste 0 -- -- 45
2020-06-25 16:00:00 26.9 9 Sudeste 19 Sudeste 0 -- -- 43
2020-06-25 15:00:00 28.1 6 Sudeste 18 Este 0 -- -- 37
2020-06-25 14:00:00 27.9 6 Este 19 Este 0 -- -- 44
2020-06-25 13:00:00 26.6 7 Este 18 Este 0 -- -- 47
2020-06-25 12:00:00 26 7 Este 18 Este 0 -- -- 48
2020-06-25 11:00:00 22.9 6 Este 17 Este 0 -- -- 55
2020-06-25 10:00:00 20.8 6 Nordeste 12 Este 0 -- -- 61
2020-06-25 09:00:00 18.6 4 Nordeste 12 Nordeste 0 -- -- 64
2020-06-25 08:00:00 16.4 2 Norte 5 Sudeste 0 -- -- 64
2020-06-25 07:00:00 14.9 4 Oeste 7 Oeste 0 -- -- 63
2020-06-25 06:00:00 15.7 2 Noroeste 7 Este 0 -- -- 57
2020-06-25 05:00:00 18.2 3 Sudeste 5 Sudeste 0 -- -- 37
2020-06-25 04:00:00 18.6 4 Noroeste 6 Noroeste 0 -- -- 36
2020-06-25 03:00:00 17.9 3 Oeste 8 Oeste 0 -- -- 39
2020-06-25 02:00:00 17.6 3 Nordeste 7 Este 0 -- -- 60
2020-06-25 01:00:00 19 2 Sudoeste 7 Sur 0 -- -- 48
2020-06-25 00:00:00 17.2 4 Sudoeste 8 Oeste 0 -- -- 76
2020-06-24 23:00:00 16.8 4 Oeste 5 Oeste 0 -- -- 80
2020-06-24 22:00:00 18.2 2 Nordeste 6 Este 0 -- -- 75
2020-06-24 21:00:00 20.3 4 Este 8 Sudeste 0 -- -- 65
2020-06-24 20:00:00 22.5 2 Oeste 10 Este 0 -- -- 57
2020-06-24 19:00:00 23.4 5 Este 13 Sudeste 0 -- -- 54
2020-06-24 18:00:00 25 6 Sudeste 20 Este 0 -- -- 50
2020-06-24 17:00:00 26.6 6 Sudeste 21 Sudeste 0 -- -- 47
2020-06-24 16:00:00 27 7 Sudeste 20 Este 0 -- -- 47
2020-06-24 15:00:00 27.4 8 Este 18 Sudeste 0 -- -- 47
2020-06-24 14:00:00 26.7 6 Sudeste 22 Sudeste 0 -- -- 50
2020-06-24 13:00:00 28.1 6 Este 21 Este 0 -- -- 45
2020-06-24 12:00:00 27.1 7 Este 19 Este 0 -- -- 47
2020-06-24 11:00:00 25.3 6 Este 14 Este 0 -- -- 47
2020-06-24 10:00:00 24.7 6 Nordeste 12 Nordeste 0 -- -- 44
2020-06-24 09:00:00 25.1 5 Noroeste 9 Nordeste 0 -- -- 22
2020-06-24 08:00:00 20.6 5 Oeste 8 Noroeste 0 -- -- 25
2020-06-24 07:00:00 19 3 Noroeste 7 Noroeste 0 -- -- 29
2020-06-24 06:00:00 18.6 4 Oeste 6 Oeste 0 -- -- 34
2020-06-24 05:00:00 19.3 3 Oeste 6 Oeste 0 -- -- 34
2020-06-24 04:00:00 19.4 0 Calma 6 Oeste 0 -- -- 34
2020-06-24 03:00:00 19.4 0 Calma 8 Noroeste 0 -- -- 34
2020-06-24 02:00:00 18.8 8 Noroeste 10 Noroeste 0 -- -- 43
2020-06-24 01:00:00 19.6 5 Noroeste 9 Noroeste 0 -- -- 44
2020-06-24 00:00:00 19.8 4 Oeste 7 Oeste 0 -- -- 55
2020-06-23 23:00:00 18.4 6 Oeste 9 Oeste 0 -- -- 76
2020-06-23 22:00:00 18.8 0 Calma 6 Este 0 -- -- 77
2020-06-23 21:00:00 20.6 3 Este 7 Este 0 -- -- 71
2020-06-23 20:00:00 22.6 4 Este 9 Este 0 -- -- 65
2020-06-23 19:00:00 24.5 5 Este 15 Sudeste 0 -- -- 59
2020-06-23 18:00:00 26.9 6 Sudeste 19 Sudeste 0 -- -- 51
2020-06-23 17:00:00 29.6 5 Sudeste 18 Sudeste 0 -- -- 44
2020-06-23 16:00:00 29.3 6 Sudeste 21 Sudeste 0 -- -- 44
2020-06-23 15:00:00 30.9 5 Este 19 Este 0 -- -- 39
2020-06-23 14:00:00 30.9 6 Este 20 Sudeste 0 -- -- 38
2020-06-23 13:00:00 29.6 7 Este 17 Nordeste 0 -- -- 39
2020-06-23 12:00:00 29.2 7 Este 16 Este 0 -- -- 36
2020-06-23 11:00:00 27.2 6 Este 14 Este 0 -- -- 42
2020-06-23 10:00:00 27.2 5 Nordeste 13 Este 0 -- -- 31
2020-06-23 09:00:00 25.2 4 Nordeste 8 Nordeste 0 -- -- 28
2020-06-23 08:00:00 20.5 3 Oeste 6 Oeste 0 -- -- 31
2020-06-23 07:00:00 19.8 4 Oeste 6 Oeste 0 -- -- 31
2020-06-23 06:00:00 19.6 3 Oeste 7 Oeste 0 -- -- 36
2020-06-23 05:00:00 20.2 4 Sudoeste 8 Noroeste 0 -- -- 37
2020-06-23 04:00:00 19.6 5 Noroeste 9 Noroeste 0 -- -- 46
2020-06-23 03:00:00 19.8 5 Oeste 5 Oeste 0 -- -- 59
2020-06-23 02:00:00 20.6 4 Sudoeste 7 Noroeste 0 -- -- 55
2020-06-23 01:00:00 20.7 4 Oeste 8 Noroeste 0 -- -- 59
2020-06-23 00:00:00 20.8 5 Noroeste 7 Oeste 0 -- -- 58
2020-06-22 23:00:00 21.3 3 Sudoeste 5 Oeste 0 -- -- 58
2020-06-22 22:00:00 20.9 3 Oeste 6 Sudoeste 0 -- -- 66
2020-06-22 21:00:00 21.5 2 Nordeste 5 Nordeste 0 -- -- 65
2020-06-22 20:00:00 23.8 3 Este 10 Sudeste 0 -- -- 59
2020-06-22 19:00:00 26.2 6 Este 15 Este 0 -- -- 49
2020-06-22 18:00:00 28.9 6 Sudeste 18 Sudeste 0 -- -- 42
2020-06-22 17:00:00 30 5 Este 20 Sudeste 0 -- -- 40
2020-06-22 16:00:00 30 7 Este 21 Sudeste 0 -- -- 39
2020-06-22 15:00:00 30.3 7 Este 22 Este 0 -- -- 39
2020-06-22 14:00:00 30.6 5 Este 21 Este 0 -- -- 38
2020-06-22 13:00:00 30.4 9 Este 23 Este 0 -- -- 38
2020-06-22 12:00:00 29.7 8 Este 17 Este 0 -- -- 36
2020-06-22 11:00:00 28.2 7 Este 13 Este 0 -- -- 34
2020-06-22 10:00:00 26 5 Nordeste 10 Este 0 -- -- 33
2020-06-22 09:00:00 25 3 Nordeste 8 Este 0 -- -- 27
2020-06-22 08:00:00 21.1 4 Oeste 6 Oeste 0 -- -- 23
2020-06-22 07:00:00 20.1 5 Oeste 6 Oeste 0 -- -- 29
2020-06-22 06:00:00 20.8 3 Sudoeste 7 Sudoeste 0 -- -- 29
2020-06-22 05:00:00 20.3 3 Oeste 8 Oeste 0 -- -- 35
2020-06-22 04:00:00 20.7 4 Oeste 10 Noroeste 0 -- -- 34
2020-06-22 03:00:00 20.4 5 Oeste 8 Noroeste 0 -- -- 41
2020-06-22 02:00:00 20.7 6 Noroeste 9 Noroeste 0 -- -- 48
2020-06-22 01:00:00 21.7 3 Sudeste 6 Oeste 0 -- -- 49
2020-06-22 00:00:00 21.6 5 Noroeste 9 Noroeste 0 -- -- 49
2020-06-21 23:00:00 22.5 3 Sur 6 Noroeste 0 -- -- 52
2020-06-21 22:00:00 22.4 3 Oeste 5 Sudoeste 0 -- -- 54
2020-06-21 21:00:00 22.4 4 Oeste 5 Oeste 0 -- -- 55
2020-06-21 20:00:00 23.3 4 Este 10 Este 0 -- -- 53
2020-06-21 19:00:00 26 5 Este 14 Este 0 -- -- 47
2020-06-21 18:00:00 28.4 6 Noroeste 17 Este 0 -- -- 39
2020-06-21 17:00:00 29.4 5 Este 17 Este 0 -- -- 38
2020-06-21 16:00:00 29.6 5 Este 19 Este 0 -- -- 40
2020-06-21 15:00:00 30.6 7 Este 22 Sudeste 0 -- -- 33
2020-06-21 14:00:00 29.7 8 Este 19 Este 0 -- -- 37
2020-06-21 13:00:00 28.4 7 Este 20 Este 0 -- -- 42
2020-06-21 12:00:00 27.3 6 Este 16 Este 0 -- -- 40
2020-06-21 11:00:00 26.2 7 Este 14 Nordeste 0 -- -- 43
2020-06-21 10:00:00 24.5 6 Este 14 Este 0 -- -- 39
2020-06-21 09:00:00 22.4 2 Oeste 9 Este 0 -- -- 31
2020-06-21 08:00:00 20.9 0 Calma 6 Sudoeste 0 -- -- 28
2020-06-21 07:00:00 20.2 3 Sudoeste 8 Noroeste 0 -- -- 29
2020-06-21 06:00:00 17.9 5 Oeste 12 Noroeste 0 -- -- 43
2020-06-21 05:00:00 17.2 4 Noroeste 7 Este 0 -- -- 47
2020-06-21 04:00:00 18.2 5 Oeste 8 Noroeste 0 -- -- 43
2020-06-21 03:00:00 20.5 4 Sudeste 8 Este 0 -- -- 42
2020-06-21 02:00:00 19.6 3 Oeste 5 Oeste 0 -- -- 43
2020-06-21 01:00:00 20.1 4 Sudoeste 9 Noroeste 0 -- -- 42
2020-06-21 00:00:00 19.8 6 Noroeste 10 Noroeste 0 -- -- 63
2020-06-20 23:00:00 20.5 2 Norte 8 Oeste 0 -- -- 63
2020-06-20 22:00:00 19.5 5 Sudoeste 8 Sudoeste 0 -- -- 72
2020-06-20 21:00:00 19.3 2 Nordeste 7 Este 0 -- -- 74
2020-06-20 20:00:00 21.6 4 Sur 10 Sudeste 0 -- -- 66
2020-06-20 19:00:00 24.3 4 Sudeste 15 Sudeste 0 -- -- 58
2020-06-20 18:00:00 26.4 6 Este 20 Este 0 -- -- 51
2020-06-20 17:00:00 26.9 4 Este 18 Este 0 -- -- 50
2020-06-20 16:00:00 27.3 6 Este 17 Este 0 -- -- 49
2020-06-20 15:00:00 26.3 6 Sudeste 20 Sur 0 -- -- 52
2020-06-20 14:00:00 27.4 5 Este 18 Este 0 -- -- 49
2020-06-20 13:00:00 26.1 7 Sudeste 21 Este 0 -- -- 50
2020-06-20 12:00:00 25.2 8 Este 16 Este 0 -- -- 48
2020-06-20 11:00:00 24.7 6 Este 14 Este 0 -- -- 47
2020-06-20 10:00:00 22 5 Este 10 Este 0 -- -- 52
2020-06-20 09:00:00 20.1 4 Noroeste 9 Este 0 -- -- 44
2020-06-20 08:00:00 17.4 3 Sudeste 6 Oeste 0 -- -- 44
2020-06-20 07:00:00 16.5 4 Noroeste 10 Noroeste 0 -- -- 42
2020-06-20 06:00:00 16.3 4 Noroeste 8 Oeste 0 -- -- 44
2020-06-20 05:00:00 15.5 6 Oeste 8 Oeste 0 -- -- 57
2020-06-20 04:00:00 16 5 Oeste 9 Noroeste 0 -- -- 57
2020-06-20 03:00:00 16.1 6 Oeste 7 Oeste 0 -- -- 57
2020-06-20 02:00:00 15.4 4 Noroeste 7 Oeste 0 -- -- 72
2020-06-20 01:00:00 15.1 5 Oeste 8 Oeste 0 -- -- 79
2020-06-20 00:00:00 16.3 3 Este 6 Este 0 -- -- 81
2020-06-19 23:00:00 17 3 Nordeste 9 Sudoeste 0 -- -- 79
2020-06-19 22:00:00 18.6 3 Este 17 Sudoeste 0 -- -- 57
2020-06-19 21:00:00 19.7 8 Sudoeste 15 Este 0 -- -- 64
2020-06-19 20:00:00 21.4 8 Sudoeste 21 Sur 0 -- -- 48
2020-06-19 19:00:00 22.9 10 Sur 24 Sur 0 -- -- 40
2020-06-19 18:00:00 25.5 10 Sur 28 Este 0 -- -- 32
2020-06-19 17:00:00 26 13 Este 28 Nordeste 0 -- -- 24
2020-06-19 16:00:00 26.8 7 Nordeste 33 Sur 0 -- -- 25
2020-06-19 15:00:00 25.5 10 Sudeste 29 Sudeste 0 -- -- 37
2020-06-19 14:00:00 24.2 11 Sur 27 Sudeste 0 -- -- 45
2020-06-19 13:00:00 25.2 7 Este 23 Este 0 -- -- 42
2020-06-19 12:00:00 24 6 Sudeste 18 Sur 0 -- -- 48
2020-06-19 11:00:00 21.7 6 Sur 14 Nordeste 0 -- -- 56
2020-06-19 10:00:00 20.1 5 Este 17 Sudeste 0 -- -- 64
2020-06-19 09:00:00 17.1 3 Nordeste 8 Nordeste 0 -- -- 76
2020-06-19 08:00:00 13.5 4 Sudoeste 7 Sudoeste 0 -- -- 84
2020-06-19 07:00:00 13.7 2 Sur 8 Noroeste 0 -- -- 83
2020-06-19 06:00:00 13.6 5 Noroeste 6 Noroeste 0 -- -- 81
2020-06-19 05:00:00 13.7 5 Oeste 11 Sudoeste 0 -- -- 82
2020-06-19 04:00:00 14.5 8 Sudoeste 12 Sudoeste 0 -- -- 80
2020-06-19 03:00:00 15 3 Sur 9 Oeste 0 -- -- 78
2020-06-19 02:00:00 14.3 5 Sudoeste 11 Oeste 0 -- -- 82
2020-06-19 01:00:00 14.4 2 Norte 8 Noroeste 0 -- -- 82
2020-06-19 00:00:00 14.7 3 Oeste 9 Oeste 0 -- -- 84
2020-06-18 23:00:00 15.5 2 Norte 8 Oeste 0 -- -- 82
2020-06-18 22:00:00 16.2 3 Nordeste 8 Sudeste 0 -- -- 79
2020-06-18 21:00:00 17.6 2 Este 9 Noroeste 0 -- -- 76
2020-06-18 20:00:00 19.5 5 Sur 10 Sur 0 -- -- 73
2020-06-18 19:00:00 21 4 Este 17 Este 0 -- -- 63
2020-06-18 18:00:00 20.9 3 Oeste 13 Sur 0 -- -- 66
2020-06-18 17:00:00 21.2 6 Sudeste 22 Sudeste 0 -- -- 67
2020-06-18 16:00:00 20.2 4 Oeste 21 Sudoeste 0 -- -- 71
2020-06-18 15:00:00 21.2 4 Sudeste 23 Sudeste 0 -- -- 68
2020-06-18 14:00:00 22.6 6 Sudeste 18 Sudeste 0 -- -- 63
2020-06-18 13:00:00 23.3 7 Sur 19 Este 0 -- -- 62
2020-06-18 12:00:00 23.1 9 Este 21 Este 0 -- -- 59
2020-06-18 11:00:00 23 8 Este 22 Sudeste 0 -- -- 59
2020-06-18 10:00:00 20.2 3 Nordeste 11 Nordeste 0 -- -- 58
2020-06-18 09:00:00 16.9 4 Este 7 Este 0 -- -- 76
2020-06-18 08:00:00 14.7 0 Calma 11 Sudoeste 0 -- -- 94
2020-06-18 07:00:00 14.8 4 Sur 8 Sudoeste 0 -- -- 94
2020-06-18 06:00:00 14.9 3 Sur 10 Sudoeste 0 -- -- 95
2020-06-18 05:00:00 14.8 3 Oeste 7 Este 0 -- -- 93
2020-06-18 04:00:00 15.3 2 Nordeste 9 Sudoeste 0 -- -- 94
2020-06-18 03:00:00 15 4 Sur 7 Sur 0 -- -- 93
2020-06-18 02:00:00 16 2 Sudoeste 14 Sudeste 0 -- -- 92
2020-06-18 01:00:00 16.5 3 Este 9 Sur 0 -- -- 96
2020-06-18 00:00:00 16.6 4 Sudeste 12 Sudeste 0 -- -- 97
2020-06-17 23:00:00 17 3 Sudeste 8 Sudeste 0.2 -- -- 96
2020-06-17 22:00:00 17.4 2 Sudeste 8 Nordeste 0 -- -- 96
2020-06-17 21:00:00 17.5 4 Este 10 Este 0 -- -- 94
2020-06-17 20:00:00 18.1 4 Este 9 Este 0 -- -- 91
2020-06-17 19:00:00 18.9 3 Este 11 Este 0 -- -- 87
2020-06-17 18:00:00 19.9 5 Este 16 Este 0 -- -- 82
2020-06-17 17:00:00 21.9 5 Este 18 Sudeste 0 -- -- 73
2020-06-17 16:00:00 23.2 6 Este 20 Este 0 -- -- 69
2020-06-17 15:00:00 23.5 7 Este 23 Este 0 -- -- 67
2020-06-17 14:00:00 24.5 6 Este 22 Este 0 -- -- 63
2020-06-17 13:00:00 24.2 6 Sur 30 Sudoeste 0 -- -- 63
2020-06-17 12:00:00 22 5 Este 18 Este 0 -- -- 72
2020-06-17 11:00:00 21 5 Este 62 Norte 0 -- -- 74
2020-06-17 10:00:00 22.9 15 Noroeste 57 Noroeste 0 -- -- 48
2020-06-17 09:00:00 18.6 8 Este 44 Oeste 0 -- -- 80
2020-06-17 08:00:00 21.9 10 Noroeste 50 Sudoeste 0 -- -- 65
2020-06-17 07:00:00 20.8 13 Noroeste 59 Oeste 0 -- -- 62
2020-06-17 06:00:00 22.1 8 Noroeste 45 Oeste 0 -- -- 59
2020-06-17 05:00:00 20.8 14 Norte 45 Oeste 0 -- -- 56
2020-06-17 04:00:00 24.5 17 Noroeste 87 Noroeste 0 -- -- 42
2020-06-17 03:00:00 23.6 15 Oeste 48 Oeste 0 -- -- 46
2020-06-17 02:00:00 22.8 12 Oeste 70 Oeste 0 -- -- 48
2020-06-17 01:00:00 23.1 32 Noroeste 75 Noroeste 0 -- -- 45
2020-06-17 00:00:00 23.2 27 Noroeste 85 Noroeste 0 -- -- 46
2020-06-16 23:00:00 23.6 40 Noroeste 87 Noroeste 0 -- -- 43
2020-06-16 22:00:00 23.2 35 Noroeste 77 Noroeste 0 -- -- 44
2020-06-16 21:00:00 23.7 38 Noroeste 82 Noroeste 0 -- -- 44
2020-06-16 20:00:00 24.3 52 Noroeste 81 Noroeste 0 -- -- 42
2020-06-16 19:00:00 24.2 46 Noroeste 76 Noroeste 0 -- -- 42
2020-06-16 18:00:00 24.9 42 Noroeste 77 Noroeste 0 -- -- 40
2020-06-16 17:00:00 26.2 33 Norte 67 Norte 0 -- -- 37
2020-06-16 16:00:00 27.4 29 Noroeste 67 Noroeste 0 -- -- 34
2020-06-16 15:00:00 28.6 39 Noroeste 84 Noroeste 0 -- -- 33
2020-06-16 14:00:00 28.6 35 Noroeste 63 Noroeste 0 -- -- 33
2020-06-16 13:00:00 28.5 26 Noroeste 63 Noroeste 0 -- -- 33
2020-06-16 12:00:00 28.2 18 Noroeste 44 Norte 0 -- -- 37
2020-06-16 11:00:00 26.5 7 Nordeste 59 Noroeste 0 -- -- 42
2020-06-16 10:00:00 27.1 15 Noroeste 61 Norte 0 -- -- 36
2020-06-16 09:00:00 25.6 17 Noroeste 70 Noroeste 0 -- -- 39
2020-06-16 08:00:00 20.8 13 Nordeste 37 Norte 0 -- -- 53
2020-06-16 07:00:00 20.2 6 Sudeste 25 Oeste 0 -- -- 56
2020-06-16 06:00:00 19.9 10 Nordeste 46 Norte 0 -- -- 60
2020-06-16 05:00:00 18.8 8 Este 28 Sudoeste 0 -- -- 58
2020-06-16 04:00:00 18.5 6 Sur 16 Sudeste 0 -- -- 66
2020-06-16 03:00:00 18.4 8 Este 37 Oeste 0 -- -- 71
2020-06-16 02:00:00 18.5 11 Sudeste 37 Noroeste 0 -- -- 77
2020-06-16 01:00:00 20.3 11 Nordeste 42 Nordeste 0 -- -- 66
2020-06-16 00:00:00 20.1 7 Este 30 Noroeste 0 -- -- 57
2020-06-15 23:00:00 21 8 Nordeste 51 Norte 0 -- -- 66
2020-06-15 22:00:00 21.8 7 Este 44 Nordeste 0 -- -- 66
2020-06-15 21:00:00 24.5 15 Norte 60 Noroeste 0 -- -- 39
2020-06-15 20:00:00 21.6 5 Este 75 Norte 0 -- -- 65
2020-06-15 19:00:00 22.2 12 Nordeste 45 Nordeste 0 -- -- 72
2020-06-15 18:00:00 23.1 10 Este 27 Sudeste 0 -- -- 71
2020-06-15 17:00:00 24.7 8 Este 28 Este 0 -- -- 66
2020-06-15 16:00:00 25.3 12 Nordeste 49 Noroeste 0 -- -- 63
2020-06-15 15:00:00 25.7 8 Sudeste 21 Sudeste 0 -- -- 61
2020-06-15 14:00:00 26.7 5 Este 17 Este 0 -- -- 57
2020-06-15 13:00:00 26.1 8 Este 21 Este 0 -- -- 56
2020-06-15 12:00:00 25.7 8 Este 18 Este 0 -- -- 50
2020-06-15 11:00:00 23.4 5 Este 13 Este 0 -- -- 57
2020-06-15 10:00:00 21.1 5 Este 14 Este 0.2 -- -- 61
2020-06-15 09:00:00 18.1 4 Sudeste 15 Sudeste 0 -- -- 73
2020-06-15 08:00:00 16.5 5 Este 10 Este 0 -- -- 75
2020-06-15 07:00:00 15 4 Oeste 21 Oeste 0 -- -- 92
2020-06-15 06:00:00 16.1 6 Sur 14 Noroeste 0 -- -- 89
2020-06-15 05:00:00 15.4 4 Oeste 13 Sur 0 -- -- 95
2020-06-15 04:00:00 -- -- -- -- -- -- -- -- --
2020-06-15 03:00:00 -- -- -- -- -- -- -- -- --
2020-06-15 02:00:00 -- -- -- -- -- -- -- -- --
2020-06-15 01:00:00 -- -- -- -- -- -- -- -- --
2020-06-15 00:00:00 -- -- -- -- -- -- -- -- --
2020-06-14 23:00:00 -- -- -- -- -- -- -- -- --
2020-06-14 22:00:00 -- -- -- -- -- -- -- -- --
2020-06-14 21:00:00 -- -- -- -- -- -- -- -- --
2020-06-14 20:00:00 -- -- -- -- -- -- -- -- --
2020-06-14 19:00:00 -- -- -- -- -- -- -- -- --
2020-06-14 18:00:00 -- -- -- -- -- -- -- -- --
2020-06-14 17:00:00 -- -- -- -- -- -- -- -- --
2020-06-14 16:00:00 -- -- -- -- -- -- -- -- --
2020-06-14 15:00:00 -- -- -- -- -- -- -- -- --
2020-06-14 14:00:00 -- -- -- -- -- -- -- -- --
2020-06-14 13:00:00 -- -- -- -- -- -- -- -- --
2020-06-14 12:00:00 -- -- -- -- -- -- -- -- --
2020-06-14 11:00:00 -- -- -- -- -- -- -- -- --
2020-06-14 10:00:00 -- -- -- -- -- -- -- -- --
2020-06-14 09:00:00 -- -- -- -- -- -- -- -- --
2020-06-14 08:00:00 -- -- -- -- -- -- -- -- --
2020-06-14 07:00:00 -- -- -- -- -- -- -- -- --
2020-06-14 06:00:00 -- -- -- -- -- -- -- -- --
2020-06-14 05:00:00 -- -- -- -- -- -- -- -- --
2020-06-14 04:00:00 -- -- -- -- -- -- -- -- --
2020-06-14 03:00:00 -- -- -- -- -- -- -- -- --
2020-06-14 02:00:00 -- -- -- -- -- -- -- -- --
2020-06-14 01:00:00 -- -- -- -- -- -- -- -- --
2020-06-14 00:00:00 -- -- -- -- -- -- -- -- --
2020-06-13 23:00:00 -- -- -- -- -- -- -- -- --
2020-06-13 22:00:00 -- -- -- -- -- -- -- -- --
2020-06-13 21:00:00 -- -- -- -- -- -- -- -- --
2020-06-13 20:00:00 -- -- -- -- -- -- -- -- --
2020-06-13 19:00:00 -- -- -- -- -- -- -- -- --
2020-06-13 18:00:00 -- -- -- -- -- -- -- -- --
2020-06-13 17:00:00 -- -- -- -- -- -- -- -- --
2020-06-13 16:00:00 -- -- -- -- -- -- -- -- --
2020-06-13 15:00:00 -- -- -- -- -- -- -- -- --
2020-06-13 14:00:00 -- -- -- -- -- -- -- -- --
2020-06-13 13:00:00 -- -- -- -- -- -- -- -- --
2020-06-13 12:00:00 -- -- -- -- -- -- -- -- --
2020-06-13 11:00:00 -- -- -- -- -- -- -- -- --
2020-06-13 10:00:00 -- -- -- -- -- -- -- -- --
2020-06-13 09:00:00 -- -- -- -- -- -- -- -- --
2020-06-13 08:00:00 -- -- -- -- -- -- -- -- --
2020-06-13 07:00:00 -- -- -- -- -- -- -- -- --
2020-06-13 06:00:00 -- -- -- -- -- -- -- -- --
2020-06-13 05:00:00 -- -- -- -- -- -- -- -- --
2020-06-13 04:00:00 -- -- -- -- -- -- -- -- --
2020-06-13 03:00:00 -- -- -- -- -- -- -- -- --
2020-06-13 02:00:00 -- -- -- -- -- -- -- -- --
2020-06-13 01:00:00 -- -- -- -- -- -- -- -- --
2020-06-13 00:00:00 -- -- -- -- -- -- -- -- --
2020-06-12 23:00:00 -- -- -- -- -- -- -- -- --
2020-06-12 22:00:00 -- -- -- -- -- -- -- -- --
2020-06-12 21:00:00 -- -- -- -- -- -- -- -- --
2020-06-12 20:00:00 -- -- -- -- -- -- -- -- --
2020-06-12 19:00:00 -- -- -- -- -- -- -- -- --
2020-06-12 18:00:00 -- -- -- -- -- -- -- -- --
2020-06-12 17:00:00 -- -- -- -- -- -- -- -- --
2020-06-12 16:00:00 -- -- -- -- -- -- -- -- --
2020-06-12 15:00:00 -- -- -- -- -- -- -- -- --
2020-06-12 14:00:00 -- -- -- -- -- -- -- -- --
2020-06-12 13:00:00 -- -- -- -- -- -- -- -- --
2020-06-12 12:00:00 -- -- -- -- -- -- -- -- --
2020-06-12 11:00:00 -- -- -- -- -- -- -- -- --
2020-06-12 10:00:00 -- -- -- -- -- -- -- -- --
2020-06-12 09:00:00 -- -- -- -- -- -- -- -- --
2020-06-12 08:00:00 -- -- -- -- -- -- -- -- --
2020-06-12 07:00:00 -- -- -- -- -- -- -- -- --
2020-06-12 06:00:00 -- -- -- -- -- -- -- -- --
2020-06-12 05:00:00 -- -- -- -- -- -- -- -- --
2020-06-12 04:00:00 -- -- -- -- -- -- -- -- --
2020-06-12 03:00:00 -- -- -- -- -- -- -- -- --
2020-06-12 02:00:00 -- -- -- -- -- -- -- -- --
2020-06-12 01:00:00 -- -- -- -- -- -- -- -- --
2020-06-12 00:00:00 -- -- -- -- -- -- -- -- --